sensor_id;sensor_type;location;lat;lon;timestamp;pressure;altitude;pressure_sealevel;temperature;humidity
21574;BME280;10948;48.706;9.258;2023-03-14T00:01:26;96303.50;;;10.69;100.00
21574;BME280;10948;48.706;9.258;2023-03-14T00:03:51;96276.72;;;10.78;100.00
21574;BME280;10948;48.706;9.258;2023-03-14T00:06:17;96259.19;;;10.80;100.00
21574;BME280;10948;48.706;9.258;2023-03-14T00:08:43;96232.66;;;10.86;100.00
21574;BME280;10948;48.706;9.258;2023-03-14T00:11:10;96223.91;;;10.57;100.00
21574;BME280;10948;48.706;9.258;2023-03-14T00:13:36;96252.25;;;10.60;100.00
21574;BME280;10948;48.706;9.258;2023-03-14T00:16:02;96241.59;;;10.63;100.00
21574;BME280;10948;48.706;9.258;2023-03-14T00:18:27;96221.34;;;10.67;100.00
21574;BME280;10948;48.706;9.258;2023-03-14T00:20:52;96218.09;;;10.74;100.00
21574;BME280;10948;48.706;9.258;2023-03-14T00:23:17;96227.41;;;10.77;100.00
21574;BME280;10948;48.706;9.258;2023-03-14T00:25:43;96214.38;;;11.06;100.00
21574;BME280;10948;48.706;9.258;2023-03-14T00:28:08;96200.25;;;10.99;100.00
21574;BME280;10948;48.706;9.258;2023-03-14T00:30:33;96199.66;;;10.96;100.00
21574;BME280;10948;48.706;9.258;2023-03-14T00:32:58;96197.53;;;10.71;100.00
21574;BME280;10948;48.706;9.258;2023-03-14T00:35:23;96204.25;;;10.74;100.00
21574;BME280;10948;48.706;9.258;2023-03-14T00:37:49;96200.47;;;10.87;100.00
21574;BME280;10948;48.706;9.258;2023-03-14T00:40:14;96200.47;;;10.87;100.00
21574;BME280;10948;48.706;9.258;2023-03-14T00:42:39;96198.41;;;10.90;100.00
21574;BME280;10948;48.706;9.258;2023-03-14T00:45:05;96194.09;;;11.10;100.00
21574;BME280;10948;48.706;9.258;2023-03-14T00:47:30;96189.72;;;11.20;100.00
21574;BME280;10948;48.706;9.258;2023-03-14T00:49:56;96185.03;;;11.04;100.00
21574;BME280;10948;48.706;9.258;2023-03-14T00:52:22;96190.53;;;11.11;100.00
21574;BME280;10948;48.706;9.258;2023-03-14T00:54:47;96188.09;;;11.19;100.00
21574;BME280;10948;48.706;9.258;2023-03-14T00:57:12;96194.91;;;11.10;100.00
21574;BME280;10948;48.706;9.258;2023-03-14T00:59:37;96197.41;;;11.12;100.00
21574;BME280;10948;48.706;9.258;2023-03-14T01:02:03;96202.84;;;11.09;100.00
21574;BME280;10948;48.706;9.258;2023-03-14T01:04:28;96210.34;;;10.93;100.00
21574;BME280;10948;48.706;9.258;2023-03-14T01:06:55;96216.81;;;11.08;100.00
21574;BME280;10948;48.706;9.258;2023-03-14T01:09:21;96219.03;;;11.12;100.00
21574;BME280;10948;48.706;9.258;2023-03-14T01:11:46;96225.28;;;10.91;100.00
21574;BME280;10948;48.706;9.258;2023-03-14T01:14:11;96212.72;;;11.15;100.00
21574;BME280;10948;48.706;9.258;2023-03-14T01:16:37;96205.06;;;11.04;100.00
21574;BME280;10948;48.706;9.258;2023-03-14T01:19:02;96201.22;;;11.08;100.00
21574;BME280;10948;48.706;9.258;2023-03-14T01:21:29;96195.16;;;10.98;100.00
21574;BME280;10948;48.706;9.258;2023-03-14T01:23:55;96191.84;;;10.96;100.00
21574;BME280;10948;48.706;9.258;2023-03-14T01:26:21;96181.91;;;11.20;100.00
21574;BME280;10948;48.706;9.258;2023-03-14T01:28:47;96176.03;;;11.18;100.00
21574;BME280;10948;48.706;9.258;2023-03-14T01:31:13;96160.41;;;11.18;100.00
21574;BME280;10948;48.706;9.258;2023-03-14T01:33:39;96162.31;;;11.16;100.00
21574;BME280;10948;48.706;9.258;2023-03-14T01:36:04;96157.91;;;11.07;100.00
21574;BME280;10948;48.706;9.258;2023-03-14T01:38:30;96158.47;;;11.20;100.00
21574;BME280;10948;48.706;9.258;2023-03-14T01:40:55;96162.97;;;10.99;100.00
21574;BME280;10948;48.706;9.258;2023-03-14T01:43:21;96149.97;;;10.99;100.00
21574;BME280;10948;48.706;9.258;2023-03-14T01:46:06;96144.84;;;10.88;100.00
21574;BME280;10948;48.706;9.258;2023-03-14T01:48:38;96128.59;;;10.95;100.00
21574;BME280;10948;48.706;9.258;2023-03-14T01:51:07;96137.91;;;10.98;100.00
21574;BME280;10948;48.706;9.258;2023-03-14T01:53:34;96123.78;;;10.91;100.00
21574;BME280;10948;48.706;9.258;2023-03-14T01:56:00;96131.63;;;11.00;100.00
21574;BME280;10948;48.706;9.258;2023-03-14T01:58:25;96118.31;;;10.94;100.00
21574;BME280;10948;48.706;9.258;2023-03-14T02:00:53;96118.03;;;10.97;100.00
21574;BME280;10948;48.706;9.258;2023-03-14T02:03:18;96110.25;;;10.97;100.00
21574;BME280;10948;48.706;9.258;2023-03-14T02:05:46;96115.44;;;10.97;100.00
21574;BME280;10948;48.706;9.258;2023-03-14T02:08:13;96106.38;;;10.91;100.00
21574;BME280;10948;48.706;9.258;2023-03-14T02:10:44;96107.44;;;10.70;100.00
21574;BME280;10948;48.706;9.258;2023-03-14T02:13:10;96118.38;;;10.64;100.00
21574;BME280;10948;48.706;9.258;2023-03-14T02:15:37;96123.75;;;10.72;100.00
21574;BME280;10948;48.706;9.258;2023-03-14T02:18:03;96118.41;;;10.74;100.00
21574;BME280;10948;48.706;9.258;2023-03-14T02:20:38;96101.13;;;10.63;100.00
21574;BME280;10948;48.706;9.258;2023-03-14T02:23:07;96106.59;;;10.60;100.00
21574;BME280;10948;48.706;9.258;2023-03-14T02:25:36;96101.31;;;10.41;100.00
21574;BME280;10948;48.706;9.258;2023-03-14T02:28:04;96090.72;;;10.73;100.00
21574;BME280;10948;48.706;9.258;2023-03-14T02:30:30;96084.69;;;10.63;100.00
21574;BME280;10948;48.706;9.258;2023-03-14T02:33:00;96082.50;;;10.58;100.00
21574;BME280;10948;48.706;9.258;2023-03-14T02:35:28;96081.00;;;10.65;100.00
21574;BME280;10948;48.706;9.258;2023-03-14T02:37:55;96071.84;;;10.80;100.00
21574;BME280;10948;48.706;9.258;2023-03-14T02:40:21;96076.47;;;10.67;100.00
21574;BME280;10948;48.706;9.258;2023-03-14T02:42:46;96084.53;;;10.55;100.00
21574;BME280;10948;48.706;9.258;2023-03-14T02:47:38;96069.66;;;10.76;100.00
21574;BME280;10948;48.706;9.258;2023-03-14T02:50:12;96070.75;;;10.73;100.00
21574;BME280;10948;48.706;9.258;2023-03-14T02:52:39;96080.19;;;10.74;100.00
21574;BME280;10948;48.706;9.258;2023-03-14T02:55:04;96056.00;;;10.83;100.00
21574;BME280;10948;48.706;9.258;2023-03-14T02:57:30;96043.09;;;10.82;100.00
21574;BME280;10948;48.706;9.258;2023-03-14T02:59:58;96048.16;;;10.64;100.00
21574;BME280;10948;48.706;9.258;2023-03-14T03:02:23;96054.00;;;10.57;100.00
21574;BME280;10948;48.706;9.258;2023-03-14T03:04:48;96033.47;;;10.44;100.00
21574;BME280;10948;48.706;9.258;2023-03-14T03:07:14;96038.41;;;10.57;100.00
21574;BME280;10948;48.706;9.258;2023-03-14T03:09:39;96039.47;;;10.45;100.00
21574;BME280;10948;48.706;9.258;2023-03-14T03:12:04;96043.16;;;10.42;100.00
21574;BME280;10948;48.706;9.258;2023-03-14T03:14:29;96039.72;;;10.32;100.00
21574;BME280;10948;48.706;9.258;2023-03-14T03:16:55;96019.59;;;10.34;100.00
21574;BME280;10948;48.706;9.258;2023-03-14T03:19:20;96004.03;;;10.44;100.00
21574;BME280;10948;48.706;9.258;2023-03-14T03:21:45;96003.31;;;10.32;100.00
21574;BME280;10948;48.706;9.258;2023-03-14T03:24:11;96003.91;;;10.45;100.00
21574;BME280;10948;48.706;9.258;2023-03-14T03:26:36;95999.47;;;10.36;100.00
21574;BME280;10948;48.706;9.258;2023-03-14T03:29:01;95998.41;;;10.48;100.00
21574;BME280;10948;48.706;9.258;2023-03-14T03:31:27;95997.72;;;10.37;100.00
21574;BME280;10948;48.706;9.258;2023-03-14T03:33:52;95986.91;;;10.41;100.00
21574;BME280;10948;48.706;9.258;2023-03-14T03:36:20;95992.69;;;10.54;100.00
21574;BME280;10948;48.706;9.258;2023-03-14T03:38:45;95978.13;;;10.33;100.00
21574;BME280;10948;48.706;9.258;2023-03-14T03:41:11;95975.69;;;10.41;100.00
21574;BME280;10948;48.706;9.258;2023-03-14T03:43:36;95967.50;;;10.45;100.00
21574;BME280;10948;48.706;9.258;2023-03-14T03:46:02;95964.88;;;10.45;100.00
21574;BME280;10948;48.706;9.258;2023-03-14T03:48:27;95962.84;;;10.39;100.00
21574;BME280;10948;48.706;9.258;2023-03-14T03:50:53;95962.13;;;10.28;100.00
21574;BME280;10948;48.706;9.258;2023-03-14T03:53:18;95953.63;;;10.35;100.00
21574;BME280;10948;48.706;9.258;2023-03-14T03:55:43;95957.59;;;10.20;100.00
21574;BME280;10948;48.706;9.258;2023-03-14T03:58:09;95960.34;;;10.28;100.00
21574;BME280;10948;48.706;9.258;2023-03-14T04:00:34;95962.78;;;10.20;100.00
21574;BME280;10948;48.706;9.258;2023-03-14T04:02:59;95960.75;;;10.33;100.00
21574;BME280;10948;48.706;9.258;2023-03-14T04:05:25;95963.09;;;10.36;100.00
21574;BME280;10948;48.706;9.258;2023-03-14T04:07:51;95952.69;;;10.17;100.00
21574;BME280;10948;48.706;9.258;2023-03-14T04:10:16;95953.50;;;10.27;100.00
21574;BME280;10948;48.706;9.258;2023-03-14T04:12:41;95951.00;;;10.16;100.00
21574;BME280;10948;48.706;9.258;2023-03-14T04:15:06;95957.00;;;10.07;100.00
21574;BME280;10948;48.706;9.258;2023-03-14T04:17:32;95957.03;;;10.17;100.00
21574;BME280;10948;48.706;9.258;2023-03-14T04:19:57;95957.59;;;10.20;100.00
21574;BME280;10948;48.706;9.258;2023-03-14T04:22:22;95949.38;;;10.15;100.00
21574;BME280;10948;48.706;9.258;2023-03-14T04:24:48;95953.78;;;10.24;100.00
21574;BME280;10948;48.706;9.258;2023-03-14T04:27:13;95954.31;;;10.18;100.00
21574;BME280;10948;48.706;9.258;2023-03-14T04:29:39;95963.84;;;10.08;100.00
21574;BME280;10948;48.706;9.258;2023-03-14T04:32:05;95960.94;;;10.02;100.00
21574;BME280;10948;48.706;9.258;2023-03-14T04:34:30;95948.97;;;10.10;100.00
21574;BME280;10948;48.706;9.258;2023-03-14T04:36:55;95946.94;;;10.14;100.00
21574;BME280;10948;48.706;9.258;2023-03-14T04:39:20;95938.91;;;9.96;100.00
21574;BME280;10948;48.706;9.258;2023-03-14T04:41:46;95948.34;;;9.97;100.00
21574;BME280;10948;48.706;9.258;2023-03-14T04:44:11;95944.09;;;9.87;100.00
21574;BME280;10948;48.706;9.258;2023-03-14T04:46:36;95943.00;;;9.99;100.00
21574;BME280;10948;48.706;9.258;2023-03-14T04:49:01;95932.06;;;9.95;100.00
21574;BME280;10948;48.706;9.258;2023-03-14T04:51:26;95936.97;;;9.89;100.00
21574;BME280;10948;48.706;9.258;2023-03-14T04:53:52;95932.63;;;9.99;100.00
21574;BME280;10948;48.706;9.258;2023-03-14T04:56:17;95939.44;;;9.90;100.00
21574;BME280;10948;48.706;9.258;2023-03-14T04:58:43;95933.13;;;9.83;100.00
21574;BME280;10948;48.706;9.258;2023-03-14T05:01:09;95931.25;;;9.95;100.00
21574;BME280;10948;48.706;9.258;2023-03-14T05:03:35;95929.38;;;10.06;100.00
21574;BME280;10948;48.706;9.258;2023-03-14T05:06:03;95919.78;;;9.97;100.00
21574;BME280;10948;48.706;9.258;2023-03-14T05:08:28;95915.50;;;9.96;100.00
21574;BME280;10948;48.706;9.258;2023-03-14T05:10:54;95916.16;;;9.79;100.00
21574;BME280;10948;48.706;9.258;2023-03-14T05:13:19;95903.03;;;9.71;100.00
21574;BME280;10948;48.706;9.258;2023-03-14T05:15:45;95912.88;;;9.77;100.00
21574;BME280;10948;48.706;9.258;2023-03-14T05:18:10;95905.47;;;9.73;100.00
21574;BME280;10948;48.706;9.258;2023-03-14T05:20:35;95904.13;;;9.78;100.00
21574;BME280;10948;48.706;9.258;2023-03-14T05:23:00;95901.69;;;9.86;100.00
21574;BME280;10948;48.706;9.258;2023-03-14T05:25:26;95895.69;;;9.95;100.00
21574;BME280;10948;48.706;9.258;2023-03-14T05:27:53;95893.50;;;9.91;100.00
21574;BME280;10948;48.706;9.258;2023-03-14T05:30:18;95904.78;;;9.71;100.00
21574;BME280;10948;48.706;9.258;2023-03-14T05:32:45;95891.00;;;9.80;100.00
21574;BME280;10948;48.706;9.258;2023-03-14T05:35:10;95895.09;;;9.82;100.00
21574;BME280;10948;48.706;9.258;2023-03-14T05:37:35;95892.09;;;9.68;100.00
21574;BME280;10948;48.706;9.258;2023-03-14T05:40:00;95894.56;;;9.88;100.00
21574;BME280;10948;48.706;9.258;2023-03-14T05:42:26;95896.59;;;9.75;100.00
21574;BME280;10948;48.706;9.258;2023-03-14T05:44:51;95897.59;;;9.93;100.00
21574;BME280;10948;48.706;9.258;2023-03-14T05:47:16;95889.72;;;10.04;100.00
21574;BME280;10948;48.706;9.258;2023-03-14T05:49:42;95885.69;;;9.81;100.00
21574;BME280;10948;48.706;9.258;2023-03-14T05:52:07;95877.09;;;9.90;100.00
21574;BME280;10948;48.706;9.258;2023-03-14T05:54:32;95872.84;;;9.89;100.00
21574;BME280;10948;48.706;9.258;2023-03-14T05:56:57;95869.16;;;9.92;100.00
21574;BME280;10948;48.706;9.258;2023-03-14T05:59:22;95862.03;;;9.75;100.00
21574;BME280;10948;48.706;9.258;2023-03-14T06:01:48;95865.06;;;9.99;100.00
21574;BME280;10948;48.706;9.258;2023-03-14T06:04:13;95856.03;;;9.93;100.00
21574;BME280;10948;48.706;9.258;2023-03-14T06:06:39;95865.59;;;10.02;100.00
21574;BME280;10948;48.706;9.258;2023-03-14T06:09:05;95870.81;;;10.02;100.00
21574;BME280;10948;48.706;9.258;2023-03-14T06:11:30;95864.13;;;10.09;100.00
21574;BME280;10948;48.706;9.258;2023-03-14T06:13:56;95868.66;;;10.07;100.00
21574;BME280;10948;48.706;9.258;2023-03-14T06:16:21;95871.41;;;10.15;100.00
21574;BME280;10948;48.706;9.258;2023-03-14T06:18:47;95873.31;;;10.13;100.00
21574;BME280;10948;48.706;9.258;2023-03-14T06:21:13;95865.94;;;10.09;100.00
21574;BME280;10948;48.706;9.258;2023-03-14T06:23:39;95862.94;;;10.13;100.00
21574;BME280;10948;48.706;9.258;2023-03-14T06:26:04;95874.97;;;10.14;100.00
21574;BME280;10948;48.706;9.258;2023-03-14T06:28:30;95867.03;;;10.25;100.00
21574;BME280;10948;48.706;9.258;2023-03-14T06:30:55;95871.53;;;10.33;100.00
21574;BME280;10948;48.706;9.258;2023-03-14T06:33:20;95868.66;;;10.07;100.00
21574;BME280;10948;48.706;9.258;2023-03-14T06:35:46;95873.75;;;10.47;100.00
21574;BME280;10948;48.706;9.258;2023-03-14T06:38:11;95881.81;;;10.34;100.00
21574;BME280;10948;48.706;9.258;2023-03-14T06:40:37;95871.41;;;10.15;100.00
21574;BME280;10948;48.706;9.258;2023-03-14T06:43:03;95873.34;;;10.32;100.00
21574;BME280;10948;48.706;9.258;2023-03-14T06:45:29;95871.69;;;10.31;100.00
21574;BME280;10948;48.706;9.258;2023-03-14T06:47:54;95879.09;;;10.45;100.00
21574;BME280;10948;48.706;9.258;2023-03-14T06:50:19;95873.34;;;10.51;100.00
21574;BME280;10948;48.706;9.258;2023-03-14T06:52:45;95872.69;;;11.04;100.00
21574;BME280;10948;48.706;9.258;2023-03-14T06:55:13;95879.09;;;11.19;100.00
21574;BME280;10948;48.706;9.258;2023-03-14T06:57:38;95871.44;;;11.08;100.00
21574;BME280;10948;48.706;9.258;2023-03-14T07:00:04;95873.09;;;11.00;100.00
21574;BME280;10948;48.706;9.258;2023-03-14T07:02:29;95869.31;;;11.31;100.00
21574;BME280;10948;48.706;9.258;2023-03-14T07:04:55;95876.75;;;11.53;100.00
21574;BME280;10948;48.706;9.258;2023-03-14T07:07:20;95877.06;;;11.13;100.00
21574;BME280;10948;48.706;9.258;2023-03-14T07:09:45;95879.38;;;11.16;100.00
21574;BME280;10948;48.706;9.258;2023-03-14T07:12:10;95883.66;;;10.89;100.00
21574;BME280;10948;48.706;9.258;2023-03-14T07:14:36;95880.34;;;11.06;100.00
21574;BME280;10948;48.706;9.258;2023-03-14T07:17:01;95880.81;;;11.38;100.00
21574;BME280;10948;48.706;9.258;2023-03-14T07:19:26;95878.19;;;12.19;100.00
21574;BME280;10948;48.706;9.258;2023-03-14T07:21:51;95875.09;;;11.61;100.00
21574;BME280;10948;48.706;9.258;2023-03-14T07:24:17;95881.28;;;11.51;100.00
21574;BME280;10948;48.706;9.258;2023-03-14T07:26:42;95880.50;;;12.22;100.00
21574;BME280;10948;48.706;9.258;2023-03-14T07:29:07;95880.56;;;12.12;95.65
21574;BME280;10948;48.706;9.258;2023-03-14T07:31:32;95883.56;;;12.35;98.90
21574;BME280;10948;48.706;9.258;2023-03-14T07:33:58;95886.41;;;15.40;87.32
21574;BME280;10948;48.706;9.258;2023-03-14T07:36:23;95887.97;;;16.72;65.04
21574;BME280;10948;48.706;9.258;2023-03-14T07:38:49;95897.81;;;13.44;79.52
21574;BME280;10948;48.706;9.258;2023-03-14T07:41:14;95902.63;;;13.31;87.93
21574;BME280;10948;48.706;9.258;2023-03-14T07:43:39;95897.84;;;15.63;83.89
21574;BME280;10948;48.706;9.258;2023-03-14T07:46:05;95893.94;;;14.39;80.06
21574;BME280;10948;48.706;9.258;2023-03-14T07:48:30;95886.38;;;13.45;85.85
21574;BME280;10948;48.706;9.258;2023-03-14T07:50:56;95896.56;;;13.05;89.35
21574;BME280;10948;48.706;9.258;2023-03-14T07:53:22;95902.47;;;13.32;89.22
21574;BME280;10948;48.706;9.258;2023-03-14T07:55:47;95898.31;;;15.66;80.10
21574;BME280;10948;48.706;9.258;2023-03-14T07:58:13;95900.88;;;16.82;69.01
21574;BME280;10948;48.706;9.258;2023-03-14T08:00:39;95895.69;;;18.34;63.32
21574;BME280;10948;48.706;9.258;2023-03-14T08:03:04;95902.50;;;17.85;62.75
21574;BME280;10948;48.706;9.258;2023-03-14T08:05:29;95903.16;;;18.31;59.63
21574;BME280;10948;48.706;9.258;2023-03-14T08:07:55;95900.09;;;16.73;60.87
21574;BME280;10948;48.706;9.258;2023-03-14T08:10:20;95900.66;;;16.83;65.65
21574;BME280;10948;48.706;9.258;2023-03-14T08:12:49;95893.94;;;16.28;68.85
21574;BME280;10948;48.706;9.258;2023-03-14T08:15:14;95899.84;;;16.38;68.92
21574;BME280;10948;48.706;9.258;2023-03-14T08:17:40;95898.66;;;16.40;69.06
21574;BME280;10948;48.706;9.258;2023-03-14T08:20:05;95884.47;;;19.58;55.79
21574;BME280;10948;48.706;9.258;2023-03-14T08:22:35;95889.41;;;20.42;51.85
21574;BME280;10948;48.706;9.258;2023-03-14T08:25:00;95885.38;;;17.89;55.52
21574;BME280;10948;48.706;9.258;2023-03-14T08:27:26;95883.41;;;18.27;59.43
21574;BME280;10948;48.706;9.258;2023-03-14T08:29:51;95881.91;;;18.03;56.41
21574;BME280;10948;48.706;9.258;2023-03-14T08:32:16;95885.84;;;16.07;63.16
21574;BME280;10948;48.706;9.258;2023-03-14T08:34:42;95877.97;;;21.86;52.49
21574;BME280;10948;48.706;9.258;2023-03-14T08:37:07;95884.06;;;21.93;51.81
21574;BME280;10948;48.706;9.258;2023-03-14T08:39:32;95876.41;;;22.73;46.58
21574;BME280;10948;48.706;9.258;2023-03-14T08:41:58;95882.06;;;22.39;48.76
21574;BME280;10948;48.706;9.258;2023-03-14T08:44:24;95875.41;;;18.70;53.12
21574;BME280;10948;48.706;9.258;2023-03-14T08:46:49;95882.94;;;16.63;61.81
21574;BME280;10948;48.706;9.258;2023-03-14T08:49:14;95877.63;;;24.06;49.51
21574;BME280;10948;48.706;9.258;2023-03-14T08:51:40;95881.53;;;25.92;41.08
21574;BME280;10948;48.706;9.258;2023-03-14T08:54:05;95880.13;;;19.78;46.82
21574;BME280;10948;48.706;9.258;2023-03-14T08:56:30;95886.28;;;18.46;53.92
21574;BME280;10948;48.706;9.258;2023-03-14T08:58:56;95885.41;;;17.01;58.38
21574;BME280;10948;48.706;9.258;2023-03-14T09:01:21;95869.00;;;18.08;57.70
21574;BME280;10948;48.706;9.258;2023-03-14T09:03:49;95893.09;;;18.76;55.48
21574;BME280;10948;48.706;9.258;2023-03-14T09:06:14;95893.28;;;18.75;54.19
21574;BME280;10948;48.706;9.258;2023-03-14T09:08:43;95886.28;;;18.46;55.57
21574;BME280;10948;48.706;9.258;2023-03-14T09:11:08;95898.56;;;18.39;56.63
21574;BME280;10948;48.706;9.258;2023-03-14T09:13:34;95919.44;;;18.26;57.46
21574;BME280;10948;48.706;9.258;2023-03-14T09:15:59;95904.72;;;19.79;54.77
21574;BME280;10948;48.706;9.258;2023-03-14T09:18:25;95927.97;;;19.96;55.52
21574;BME280;10948;48.706;9.258;2023-03-14T09:20:50;95917.56;;;19.54;54.57
21574;BME280;10948;48.706;9.258;2023-03-14T09:23:16;95920.91;;;18.43;56.30
21574;BME280;10948;48.706;9.258;2023-03-14T09:25:41;95928.38;;;18.75;57.21
21574;BME280;10948;48.706;9.258;2023-03-14T09:28:06;95924.16;;;19.71;54.95
21574;BME280;10948;48.706;9.258;2023-03-14T09:30:32;95915.38;;;19.98;54.42
21574;BME280;10948;48.706;9.258;2023-03-14T09:32:58;95924.56;;;18.99;55.88
21574;BME280;10948;48.706;9.258;2023-03-14T09:35:24;95939.53;;;20.76;55.07
21574;BME280;10948;48.706;9.258;2023-03-14T09:37:49;95942.78;;;19.63;54.47
21574;BME280;10948;48.706;9.258;2023-03-14T09:40:16;95941.09;;;17.64;58.70
21574;BME280;10948;48.706;9.258;2023-03-14T09:42:42;95959.53;;;17.19;61.67
21574;BME280;10948;48.706;9.258;2023-03-14T09:45:12;95967.13;;;16.31;62.91
21574;BME280;10948;48.706;9.258;2023-03-14T09:47:39;95954.53;;;15.64;64.60
21574;BME280;10948;48.706;9.258;2023-03-14T09:50:05;95965.38;;;15.05;67.15
21574;BME280;10948;48.706;9.258;2023-03-14T09:52:35;95967.03;;;15.38;69.11
21574;BME280;10948;48.706;9.258;2023-03-14T09:55:06;95962.41;;;15.08;70.27
21574;BME280;10948;48.706;9.258;2023-03-14T09:57:35;95965.38;;;15.05;70.94
21574;BME280;10948;48.706;9.258;2023-03-14T10:00:02;95955.19;;;14.86;71.28
21574;BME280;10948;48.706;9.258;2023-03-14T10:02:37;95972.06;;;14.83;71.06
21574;BME280;10948;48.706;9.258;2023-03-14T10:05:07;95970.28;;;15.00;72.86
21574;BME280;10948;48.706;9.258;2023-03-14T10:07:33;95966.31;;;14.80;73.79
21574;BME280;10948;48.706;9.258;2023-03-14T10:09:59;95959.78;;;14.84;73.80
21574;BME280;10948;48.706;9.258;2023-03-14T10:12:32;95959.09;;;14.74;72.30
21574;BME280;10948;48.706;9.258;2023-03-14T10:14:57;95959.16;;;15.22;70.95
21574;BME280;10948;48.706;9.258;2023-03-14T10:17:27;95963.41;;;15.39;70.10
21574;BME280;10948;48.706;9.258;2023-03-14T10:19:58;95954.19;;;15.75;67.31
21574;BME280;10948;48.706;9.258;2023-03-14T10:22:24;95939.19;;;19.43;59.75
21574;BME280;10948;48.706;9.258;2023-03-14T10:24:52;95942.66;;;20.86;52.02
21574;BME280;10948;48.706;9.258;2023-03-14T10:27:19;95941.16;;;18.99;53.15
21574;BME280;10948;48.706;9.258;2023-03-14T10:29:52;95933.00;;;17.51;56.35
21574;BME280;10948;48.706;9.258;2023-03-14T10:32:19;95934.09;;;16.75;61.22
21574;BME280;10948;48.706;9.258;2023-03-14T10:34:44;95936.50;;;16.54;62.57
21574;BME280;10948;48.706;9.258;2023-03-14T10:39:47;95927.25;;;15.89;65.29
21574;BME280;10948;48.706;9.258;2023-03-14T10:44:44;95933.59;;;15.56;65.80
21574;BME280;10948;48.706;9.258;2023-03-14T10:47:15;95924.22;;;16.08;64.69
21574;BME280;10948;48.706;9.258;2023-03-14T10:49:42;95940.09;;;15.76;66.38
21574;BME280;10948;48.706;9.258;2023-03-14T10:52:26;95927.03;;;15.52;67.73
21574;BME280;10948;48.706;9.258;2023-03-14T10:54:59;95941.47;;;15.32;68.91
21574;BME280;10948;48.706;9.258;2023-03-14T10:57:25;95939.66;;;15.08;69.92
21574;BME280;10948;48.706;9.258;2023-03-14T10:59:50;95941.47;;;15.16;71.13
21574;BME280;10948;48.706;9.258;2023-03-14T11:07:29;95955.22;;;15.02;76.56
21574;BME280;10948;48.706;9.258;2023-03-14T11:12:30;95947.00;;;14.81;77.96
21574;BME280;10948;48.706;9.258;2023-03-14T11:15:05;95942.41;;;14.75;76.91
21574;BME280;10948;48.706;9.258;2023-03-14T11:22:28;95966.59;;;14.61;78.77
21574;BME280;10948;48.706;9.258;2023-03-14T11:32:32;95993.41;;;14.05;88.52
21574;BME280;10948;48.706;9.258;2023-03-14T11:34:59;95986.16;;;13.99;90.42
21574;BME280;10948;48.706;9.258;2023-03-14T11:37:34;95999.00;;;13.85;90.52
21574;BME280;10948;48.706;9.258;2023-03-14T11:42:38;95993.16;;;13.91;89.86
21574;BME280;10948;48.706;9.258;2023-03-14T11:45:10;95996.97;;;13.71;91.90
21574;BME280;10948;48.706;9.258;2023-03-14T11:47:39;95990.59;;;13.73;94.60
21574;BME280;10948;48.706;9.258;2023-03-14T11:50:19;96006.47;;;13.29;98.86
21574;BME280;10948;48.706;9.258;2023-03-14T11:52:48;95998.38;;;13.91;97.89
21574;BME280;10948;48.706;9.258;2023-03-14T11:55:26;96005.06;;;13.85;98.75
21574;BME280;10948;48.706;9.258;2023-03-14T11:57:56;96019.03;;;13.76;96.06
21574;BME280;10948;48.706;9.258;2023-03-14T12:00:26;96015.81;;;13.82;96.30
21574;BME280;10948;48.706;9.258;2023-03-14T12:08:34;96033.38;;;14.57;89.40
21574;BME280;10948;48.706;9.258;2023-03-14T12:13:41;96034.28;;;14.06;93.93
21574;BME280;10948;48.706;9.258;2023-03-14T12:18:48;96061.31;;;13.46;99.32
21574;BME280;10948;48.706;9.258;2023-03-14T12:21:14;96049.72;;;13.31;100.00
21574;BME280;10948;48.706;9.258;2023-03-14T12:26:15;96066.75;;;13.53;99.96
21574;BME280;10948;48.706;9.258;2023-03-14T12:28:49;96065.34;;;13.84;99.04
21574;BME280;10948;48.706;9.258;2023-03-14T12:41:52;96139.31;;;13.59;71.87
21574;BME280;10948;48.706;9.258;2023-03-14T12:46:58;96147.34;;;14.43;63.00
21574;BME280;10948;48.706;9.258;2023-03-14T12:49:30;96162.72;;;14.21;65.88
21574;BME280;10948;48.706;9.258;2023-03-14T12:51:59;96175.09;;;14.62;67.05
21574;BME280;10948;48.706;9.258;2023-03-14T12:54:27;96182.47;;;15.00;64.99
21574;BME280;10948;48.706;9.258;2023-03-14T12:59:47;96198.97;;;14.59;62.61
21574;BME280;10948;48.706;9.258;2023-03-14T13:02:28;96210.81;;;15.04;59.95
21574;BME280;10948;48.706;9.258;2023-03-14T13:10:41;96243.53;;;15.67;51.48
21574;BME280;10948;48.706;9.258;2023-03-14T13:17:46;96264.13;;;14.44;54.13
21574;BME280;10948;48.706;9.258;2023-03-14T13:20:14;96268.41;;;13.93;54.55
21574;BME280;10948;48.706;9.258;2023-03-14T13:22:45;96294.94;;;15.27;53.43
21574;BME280;10948;48.706;9.258;2023-03-14T13:25:11;96302.34;;;14.55;52.25
21574;BME280;10948;48.706;9.258;2023-03-14T13:27:36;96304.41;;;13.64;52.66
21574;BME280;10948;48.706;9.258;2023-03-14T13:30:05;96308.03;;;15.19;50.46
21574;BME280;10948;48.706;9.258;2023-03-14T13:32:39;96306.84;;;13.38;52.19
21574;BME280;10948;48.706;9.258;2023-03-14T13:35:13;96335.53;;;13.21;52.50
21574;BME280;10948;48.706;9.258;2023-03-14T13:37:39;96345.88;;;13.13;52.67
21574;BME280;10948;48.706;9.258;2023-03-14T13:40:04;96359.91;;;13.12;53.12
21574;BME280;10948;48.706;9.258;2023-03-14T13:42:30;96358.72;;;13.43;51.51
21574;BME280;10948;48.706;9.258;2023-03-14T13:44:56;96374.34;;;13.52;50.58
21574;BME280;10948;48.706;9.258;2023-03-14T13:47:22;96392.34;;;12.81;51.35
21574;BME280;10948;48.706;9.258;2023-03-14T13:49:48;96395.13;;;12.79;52.65
21574;BME280;10948;48.706;9.258;2023-03-14T13:52:30;96404.31;;;12.83;52.90
21574;BME280;10948;48.706;9.258;2023-03-14T13:54:57;96401.72;;;12.36;54.36
21574;BME280;10948;48.706;9.258;2023-03-14T13:57:24;96417.25;;;12.85;53.39
21574;BME280;10948;48.706;9.258;2023-03-14T14:00:05;96434.09;;;13.28;52.78
21574;BME280;10948;48.706;9.258;2023-03-14T14:02:35;96437.13;;;12.29;52.07